sensor_id;sensor_type;location;lat;lon;timestamp;temperature;humidity
35920;DHT22;36160;53.370;-6.196;2022-10-13T00:01:22;9.30;99.90
35920;DHT22;36160;53.370;-6.196;2022-10-13T00:03:48;9.30;99.90
35920;DHT22;36160;53.370;-6.196;2022-10-13T00:06:16;9.30;99.90
35920;DHT22;36160;53.370;-6.196;2022-10-13T00:08:43;9.50;99.90
35920;DHT22;36160;53.370;-6.196;2022-10-13T00:11:19;9.40;99.90
35920;DHT22;36160;53.370;-6.196;2022-10-13T00:13:46;9.50;99.90
35920;DHT22;36160;53.370;-6.196;2022-10-13T00:16:13;9.40;99.90
35920;DHT22;36160;53.370;-6.196;2022-10-13T00:18:40;9.30;99.90
35920;DHT22;36160;53.370;-6.196;2022-10-13T00:21:08;9.30;99.90
35920;DHT22;36160;53.370;-6.196;2022-10-13T00:23:34;9.20;99.90
35920;DHT22;36160;53.370;-6.196;2022-10-13T00:26:03;9.20;99.90
35920;DHT22;36160;53.370;-6.196;2022-10-13T00:28:29;9.20;99.90
35920;DHT22;36160;53.370;-6.196;2022-10-13T00:30:56;9.20;99.90
35920;DHT22;36160;53.370;-6.196;2022-10-13T00:33:22;9.20;99.90
35920;DHT22;36160;53.370;-6.196;2022-10-13T00:35:48;9.30;99.90
35920;DHT22;36160;53.370;-6.196;2022-10-13T00:38:18;9.20;99.90
35920;DHT22;36160;53.370;-6.196;2022-10-13T00:40:49;9.30;99.90
35920;DHT22;36160;53.370;-6.196;2022-10-13T00:46:03;9.20;99.90
35920;DHT22;36160;53.370;-6.196;2022-10-13T00:48:29;9.20;99.90
35920;DHT22;36160;53.370;-6.196;2022-10-13T00:50:57;9.20;99.90
35920;DHT22;36160;53.370;-6.196;2022-10-13T00:53:30;9.20;99.90
35920;DHT22;36160;53.370;-6.196;2022-10-13T00:55:57;9.20;99.90
35920;DHT22;36160;53.370;-6.196;2022-10-13T00:58:24;9.10;99.90
35920;DHT22;36160;53.370;-6.196;2022-10-13T01:00:56;9.00;99.90
35920;DHT22;36160;53.370;-6.196;2022-10-13T01:03:22;9.10;99.90
35920;DHT22;36160;53.370;-6.196;2022-10-13T01:05:50;9.10;99.90
35920;DHT22;36160;53.370;-6.196;2022-10-13T01:08:18;9.00;99.90
35920;DHT22;36160;53.370;-6.196;2022-10-13T01:11:13;9.00;99.90
35920;DHT22;36160;53.370;-6.196;2022-10-13T01:16:47;8.80;99.90
35920;DHT22;36160;53.370;-6.196;2022-10-13T01:40:31;8.50;99.90
35920;DHT22;36160;53.370;-6.196;2022-10-13T01:43:13;8.50;99.90
35920;DHT22;36160;53.370;-6.196;2022-10-13T01:48:27;8.50;99.90
35920;DHT22;36160;53.370;-6.196;2022-10-13T01:50:54;8.50;99.90
35920;DHT22;36160;53.370;-6.196;2022-10-13T01:53:23;8.50;99.90
35920;DHT22;36160;53.370;-6.196;2022-10-13T01:55:51;8.30;99.90
35920;DHT22;36160;53.370;-6.196;2022-10-13T01:58:17;8.40;99.90
35920;DHT22;36160;53.370;-6.196;2022-10-13T02:00:53;8.40;99.90
35920;DHT22;36160;53.370;-6.196;2022-10-13T02:03:29;8.40;99.90
35920;DHT22;36160;53.370;-6.196;2022-10-13T02:06:41;8.50;99.90
35920;DHT22;36160;53.370;-6.196;2022-10-13T02:12:05;8.50;99.90
35920;DHT22;36160;53.370;-6.196;2022-10-13T02:14:33;8.50;99.90
35920;DHT22;36160;53.370;-6.196;2022-10-13T02:17:03;8.50;99.90
35920;DHT22;36160;53.370;-6.196;2022-10-13T02:19:33;8.40;99.90
35920;DHT22;36160;53.370;-6.196;2022-10-13T02:22:00;8.20;99.90
35920;DHT22;36160;53.370;-6.196;2022-10-13T02:24:26;8.10;99.90
35920;DHT22;36160;53.370;-6.196;2022-10-13T02:26:52;8.10;99.90
35920;DHT22;36160;53.370;-6.196;2022-10-13T02:29:18;8.10;99.90
35920;DHT22;36160;53.370;-6.196;2022-10-13T02:31:45;8.10;99.90
35920;DHT22;36160;53.370;-6.196;2022-10-13T02:34:11;8.10;99.90
35920;DHT22;36160;53.370;-6.196;2022-10-13T02:36:38;8.20;99.90
35920;DHT22;36160;53.370;-6.196;2022-10-13T02:39:05;8.10;99.90
35920;DHT22;36160;53.370;-6.196;2022-10-13T02:41:32;8.00;99.90
35920;DHT22;36160;53.370;-6.196;2022-10-13T02:43:57;8.00;99.90
35920;DHT22;36160;53.370;-6.196;2022-10-13T02:46:23;8.00;99.90
35920;DHT22;36160;53.370;-6.196;2022-10-13T02:48:49;7.90;99.90
35920;DHT22;36160;53.370;-6.196;2022-10-13T02:51:14;8.00;99.90
35920;DHT22;36160;53.370;-6.196;2022-10-13T02:53:40;8.10;99.90
35920;DHT22;36160;53.370;-6.196;2022-10-13T02:56:06;8.10;99.90
35920;DHT22;36160;53.370;-6.196;2022-10-13T02:58:32;8.10;99.90
35920;DHT22;36160;53.370;-6.196;2022-10-13T03:01:09;8.00;99.90
35920;DHT22;36160;53.370;-6.196;2022-10-13T03:03:36;8.00;99.90
35920;DHT22;36160;53.370;-6.196;2022-10-13T03:06:02;7.90;99.90
35920;DHT22;36160;53.370;-6.196;2022-10-13T03:08:28;7.90;99.90
35920;DHT22;36160;53.370;-6.196;2022-10-13T03:10:54;7.90;99.90
35920;DHT22;36160;53.370;-6.196;2022-10-13T03:13:20;7.80;99.90
35920;DHT22;36160;53.370;-6.196;2022-10-13T03:15:46;7.80;99.90
35920;DHT22;36160;53.370;-6.196;2022-10-13T03:18:12;7.90;99.90
35920;DHT22;36160;53.370;-6.196;2022-10-13T03:20:38;7.90;99.90
35920;DHT22;36160;53.370;-6.196;2022-10-13T03:23:04;7.80;99.90
35920;DHT22;36160;53.370;-6.196;2022-10-13T03:25:31;7.80;99.90
35920;DHT22;36160;53.370;-6.196;2022-10-13T03:27:57;7.60;99.90
35920;DHT22;36160;53.370;-6.196;2022-10-13T03:30:23;7.60;99.90
35920;DHT22;36160;53.370;-6.196;2022-10-13T03:32:49;7.60;99.90
35920;DHT22;36160;53.370;-6.196;2022-10-13T03:35:15;7.60;99.90
35920;DHT22;36160;53.370;-6.196;2022-10-13T03:37:40;7.60;99.90
35920;DHT22;36160;53.370;-6.196;2022-10-13T03:40:07;7.50;99.90
35920;DHT22;36160;53.370;-6.196;2022-10-13T03:42:35;7.50;99.90
35920;DHT22;36160;53.370;-6.196;2022-10-13T03:45:01;7.50;99.90
35920;DHT22;36160;53.370;-6.196;2022-10-13T03:47:27;7.50;99.90
35920;DHT22;36160;53.370;-6.196;2022-10-13T03:49:53;7.50;99.90
35920;DHT22;36160;53.370;-6.196;2022-10-13T03:52:21;7.50;99.90
35920;DHT22;36160;53.370;-6.196;2022-10-13T03:54:47;7.50;99.90
35920;DHT22;36160;53.370;-6.196;2022-10-13T03:57:13;7.40;99.90
35920;DHT22;36160;53.370;-6.196;2022-10-13T03:59:40;7.40;99.90
35920;DHT22;36160;53.370;-6.196;2022-10-13T04:02:06;7.50;99.90
35920;DHT22;36160;53.370;-6.196;2022-10-13T04:04:32;7.40;99.90
35920;DHT22;36160;53.370;-6.196;2022-10-13T04:06:58;7.50;99.90
35920;DHT22;36160;53.370;-6.196;2022-10-13T04:09:24;7.60;99.90
35920;DHT22;36160;53.370;-6.196;2022-10-13T04:11:50;7.60;99.90
35920;DHT22;36160;53.370;-6.196;2022-10-13T04:14:17;7.60;99.90
35920;DHT22;36160;53.370;-6.196;2022-10-13T04:16:43;7.50;99.90
35920;DHT22;36160;53.370;-6.196;2022-10-13T04:19:10;7.50;99.90
35920;DHT22;36160;53.370;-6.196;2022-10-13T04:21:36;7.50;99.90
35920;DHT22;36160;53.370;-6.196;2022-10-13T04:24:04;7.40;99.90
35920;DHT22;36160;53.370;-6.196;2022-10-13T04:26:33;7.40;99.90
35920;DHT22;36160;53.370;-6.196;2022-10-13T04:28:59;7.50;99.90
35920;DHT22;36160;53.370;-6.196;2022-10-13T04:31:28;7.40;99.90
35920;DHT22;36160;53.370;-6.196;2022-10-13T04:33:55;7.30;99.90
35920;DHT22;36160;53.370;-6.196;2022-10-13T04:36:20;7.40;99.90
35920;DHT22;36160;53.370;-6.196;2022-10-13T04:38:46;7.40;99.90
35920;DHT22;36160;53.370;-6.196;2022-10-13T04:41:15;7.40;99.90
35920;DHT22;36160;53.370;-6.196;2022-10-13T04:43:41;7.40;99.90
35920;DHT22;36160;53.370;-6.196;2022-10-13T04:46:13;7.40;99.90
35920;DHT22;36160;53.370;-6.196;2022-10-13T04:48:39;7.30;99.90
35920;DHT22;36160;53.370;-6.196;2022-10-13T04:51:11;7.10;99.90
35920;DHT22;36160;53.370;-6.196;2022-10-13T04:53:38;7.00;99.90
35920;DHT22;36160;53.370;-6.196;2022-10-13T04:56:06;7.00;99.90
35920;DHT22;36160;53.370;-6.196;2022-10-13T04:58:36;7.00;99.90
35920;DHT22;36160;53.370;-6.196;2022-10-13T05:01:03;7.10;99.90
35920;DHT22;36160;53.370;-6.196;2022-10-13T05:03:30;7.10;99.90
35920;DHT22;36160;53.370;-6.196;2022-10-13T05:05:56;7.10;99.90
35920;DHT22;36160;53.370;-6.196;2022-10-13T05:08:21;7.00;99.90
35920;DHT22;36160;53.370;-6.196;2022-10-13T05:11:01;7.00;99.90
35920;DHT22;36160;53.370;-6.196;2022-10-13T05:13:28;7.00;99.90
35920;DHT22;36160;53.370;-6.196;2022-10-13T05:15:54;6.90;99.90
35920;DHT22;36160;53.370;-6.196;2022-10-13T05:18:21;6.90;99.90
35920;DHT22;36160;53.370;-6.196;2022-10-13T05:20:46;6.90;99.90
35920;DHT22;36160;53.370;-6.196;2022-10-13T05:23:14;6.90;99.90
35920;DHT22;36160;53.370;-6.196;2022-10-13T05:25:40;6.90;99.90
35920;DHT22;36160;53.370;-6.196;2022-10-13T05:28:07;7.00;99.90
35920;DHT22;36160;53.370;-6.196;2022-10-13T05:30:34;7.00;99.90
35920;DHT22;36160;53.370;-6.196;2022-10-13T05:32:59;7.10;99.90
35920;DHT22;36160;53.370;-6.196;2022-10-13T05:35:26;7.10;99.90
35920;DHT22;36160;53.370;-6.196;2022-10-13T05:37:52;7.20;99.90
35920;DHT22;36160;53.370;-6.196;2022-10-13T05:40:18;7.10;99.90
35920;DHT22;36160;53.370;-6.196;2022-10-13T05:42:47;7.00;99.90
35920;DHT22;36160;53.370;-6.196;2022-10-13T05:45:12;7.10;99.90
35920;DHT22;36160;53.370;-6.196;2022-10-13T05:47:38;7.20;99.90
35920;DHT22;36160;53.370;-6.196;2022-10-13T05:50:04;7.10;99.90
35920;DHT22;36160;53.370;-6.196;2022-10-13T05:52:31;7.20;99.90
35920;DHT22;36160;53.370;-6.196;2022-10-13T05:55:00;7.10;99.90
35920;DHT22;36160;53.370;-6.196;2022-10-13T05:57:33;7.20;99.90
35920;DHT22;36160;53.370;-6.196;2022-10-13T06:00:04;7.10;99.90
35920;DHT22;36160;53.370;-6.196;2022-10-13T06:03:18;7.10;99.90
35920;DHT22;36160;53.370;-6.196;2022-10-13T06:05:25;7.10;99.90
35920;DHT22;36160;53.370;-6.196;2022-10-13T06:07:53;7.10;99.90
35920;DHT22;36160;53.370;-6.196;2022-10-13T06:10:20;7.10;99.90
35920;DHT22;36160;53.370;-6.196;2022-10-13T06:12:45;7.00;99.90
35920;DHT22;36160;53.370;-6.196;2022-10-13T06:15:11;7.00;99.90
35920;DHT22;36160;53.370;-6.196;2022-10-13T06:17:37;7.00;99.90
35920;DHT22;36160;53.370;-6.196;2022-10-13T06:20:04;6.90;99.90
35920;DHT22;36160;53.370;-6.196;2022-10-13T06:22:34;6.90;99.90
35920;DHT22;36160;53.370;-6.196;2022-10-13T06:25:00;7.00;99.90
35920;DHT22;36160;53.370;-6.196;2022-10-13T06:27:26;6.90;99.90
35920;DHT22;36160;53.370;-6.196;2022-10-13T06:29:52;6.90;99.90
35920;DHT22;36160;53.370;-6.196;2022-10-13T06:32:18;6.90;99.90
35920;DHT22;36160;53.370;-6.196;2022-10-13T06:34:44;6.90;99.90
35920;DHT22;36160;53.370;-6.196;2022-10-13T06:37:10;6.90;99.90
35920;DHT22;36160;53.370;-6.196;2022-10-13T06:39:35;6.90;99.90
35920;DHT22;36160;53.370;-6.196;2022-10-13T06:42:01;7.00;99.90
35920;DHT22;36160;53.370;-6.196;2022-10-13T06:44:26;7.00;99.90
35920;DHT22;36160;53.370;-6.196;2022-10-13T06:46:52;7.00;99.90
35920;DHT22;36160;53.370;-6.196;2022-10-13T06:49:18;7.10;99.90
35920;DHT22;36160;53.370;-6.196;2022-10-13T06:51:44;7.10;99.90
35920;DHT22;36160;53.370;-6.196;2022-10-13T06:54:09;7.10;99.90
35920;DHT22;36160;53.370;-6.196;2022-10-13T06:56:35;7.10;99.90
35920;DHT22;36160;53.370;-6.196;2022-10-13T06:59:01;7.10;99.90
35920;DHT22;36160;53.370;-6.196;2022-10-13T07:01:26;7.10;99.90
35920;DHT22;36160;53.370;-6.196;2022-10-13T07:03:52;7.10;99.90
35920;DHT22;36160;53.370;-6.196;2022-10-13T07:06:18;7.20;99.90
35920;DHT22;36160;53.370;-6.196;2022-10-13T07:08:43;7.20;99.90
35920;DHT22;36160;53.370;-6.196;2022-10-13T07:11:11;7.30;99.90
35920;DHT22;36160;53.370;-6.196;2022-10-13T07:13:38;7.40;99.90
35920;DHT22;36160;53.370;-6.196;2022-10-13T07:16:05;7.30;99.90
35920;DHT22;36160;53.370;-6.196;2022-10-13T07:18:31;7.30;99.90
35920;DHT22;36160;53.370;-6.196;2022-10-13T07:20:58;7.40;99.90
35920;DHT22;36160;53.370;-6.196;2022-10-13T07:23:24;7.40;99.90
35920;DHT22;36160;53.370;-6.196;2022-10-13T07:25:50;7.50;99.90
35920;DHT22;36160;53.370;-6.196;2022-10-13T07:28:16;7.50;99.90
35920;DHT22;36160;53.370;-6.196;2022-10-13T07:30:42;7.60;99.90
35920;DHT22;36160;53.370;-6.196;2022-10-13T07:33:09;7.60;99.90
35920;DHT22;36160;53.370;-6.196;2022-10-13T07:35:38;7.70;99.90
35920;DHT22;36160;53.370;-6.196;2022-10-13T07:38:05;7.70;99.90
35920;DHT22;36160;53.370;-6.196;2022-10-13T07:40:30;7.60;99.90
35920;DHT22;36160;53.370;-6.196;2022-10-13T07:42:56;7.80;99.90
35920;DHT22;36160;53.370;-6.196;2022-10-13T07:45:23;7.80;99.90
35920;DHT22;36160;53.370;-6.196;2022-10-13T07:47:48;7.90;99.90
35920;DHT22;36160;53.370;-6.196;2022-10-13T07:50:14;8.00;99.90
35920;DHT22;36160;53.370;-6.196;2022-10-13T07:52:40;8.00;99.90
35920;DHT22;36160;53.370;-6.196;2022-10-13T07:55:06;8.00;99.90
35920;DHT22;36160;53.370;-6.196;2022-10-13T07:57:32;8.10;99.90
35920;DHT22;36160;53.370;-6.196;2022-10-13T07:59:57;8.20;99.90
35920;DHT22;36160;53.370;-6.196;2022-10-13T08:02:23;8.30;99.90
35920;DHT22;36160;53.370;-6.196;2022-10-13T08:04:49;8.30;99.90
35920;DHT22;36160;53.370;-6.196;2022-10-13T08:07:14;8.40;99.90
35920;DHT22;36160;53.370;-6.196;2022-10-13T08:09:41;8.50;99.90
35920;DHT22;36160;53.370;-6.196;2022-10-13T08:12:07;8.60;99.90
35920;DHT22;36160;53.370;-6.196;2022-10-13T08:14:32;8.70;99.90
35920;DHT22;36160;53.370;-6.196;2022-10-13T08:16:58;8.70;99.90
35920;DHT22;36160;53.370;-6.196;2022-10-13T08:19:24;8.90;99.90
35920;DHT22;36160;53.370;-6.196;2022-10-13T08:21:51;9.00;99.90
35920;DHT22;36160;53.370;-6.196;2022-10-13T08:24:17;9.00;99.90
35920;DHT22;36160;53.370;-6.196;2022-10-13T08:26:44;9.20;99.90
35920;DHT22;36160;53.370;-6.196;2022-10-13T08:29:11;9.20;99.90
35920;DHT22;36160;53.370;-6.196;2022-10-13T08:31:37;9.30;99.90
35920;DHT22;36160;53.370;-6.196;2022-10-13T08:34:03;9.50;99.90
35920;DHT22;36160;53.370;-6.196;2022-10-13T08:36:29;9.60;99.90
35920;DHT22;36160;53.370;-6.196;2022-10-13T08:38:55;9.70;99.90
35920;DHT22;36160;53.370;-6.196;2022-10-13T08:41:27;9.80;99.90
35920;DHT22;36160;53.370;-6.196;2022-10-13T08:44:06;9.90;99.90
35920;DHT22;36160;53.370;-6.196;2022-10-13T08:49:27;10.20;99.90
35920;DHT22;36160;53.370;-6.196;2022-10-13T08:51:54;10.20;99.90
35920;DHT22;36160;53.370;-6.196;2022-10-13T08:54:22;10.30;99.90
35920;DHT22;36160;53.370;-6.196;2022-10-13T08:56:49;10.50;99.90
35920;DHT22;36160;53.370;-6.196;2022-10-13T08:59:16;10.50;99.90
35920;DHT22;36160;53.370;-6.196;2022-10-13T09:01:43;10.70;99.90
35920;DHT22;36160;53.370;-6.196;2022-10-13T09:04:32;10.80;99.90
35920;DHT22;36160;53.370;-6.196;2022-10-13T09:07:16;10.80;99.90
35920;DHT22;36160;53.370;-6.196;2022-10-13T09:09:42;11.00;99.90
35920;DHT22;36160;53.370;-6.196;2022-10-13T09:12:11;11.10;99.90
35920;DHT22;36160;53.370;-6.196;2022-10-13T09:14:38;11.20;99.90
35920;DHT22;36160;53.370;-6.196;2022-10-13T09:19:39;11.30;99.90
35920;DHT22;36160;53.370;-6.196;2022-10-13T09:22:25;11.30;99.90
35920;DHT22;36160;53.370;-6.196;2022-10-13T09:25:16;11.50;99.90
35920;DHT22;36160;53.370;-6.196;2022-10-13T09:27:45;11.50;99.90
35920;DHT22;36160;53.370;-6.196;2022-10-13T09:30:31;11.70;99.90
35920;DHT22;36160;53.370;-6.196;2022-10-13T09:33:05;11.80;99.90
35920;DHT22;36160;53.370;-6.196;2022-10-13T09:38:22;12.20;99.90
35920;DHT22;36160;53.370;-6.196;2022-10-13T09:46:22;12.60;99.90
35920;DHT22;36160;53.370;-6.196;2022-10-13T09:48:50;12.80;99.90
35920;DHT22;36160;53.370;-6.196;2022-10-13T09:53:55;12.90;98.40
35920;DHT22;36160;53.370;-6.196;2022-10-13T09:59:35;13.10;96.40
35920;DHT22;36160;53.370;-6.196;2022-10-13T10:04:40;13.20;95.50
35920;DHT22;36160;53.370;-6.196;2022-10-13T10:07:19;13.10;96.10
35920;DHT22;36160;53.370;-6.196;2022-10-13T10:09:59;13.20;95.00
35920;DHT22;36160;53.370;-6.196;2022-10-13T10:12:28;13.20;96.80
35920;DHT22;36160;53.370;-6.196;2022-10-13T10:14:55;13.20;92.80
35920;DHT22;36160;53.370;-6.196;2022-10-13T10:17:42;13.30;94.80
35920;DHT22;36160;53.370;-6.196;2022-10-13T10:30:45;13.30;96.00
35920;DHT22;36160;53.370;-6.196;2022-10-13T10:33:19;13.40;96.30
35920;DHT22;36160;53.370;-6.196;2022-10-13T10:38:43;13.60;89.40
35920;DHT22;36160;53.370;-6.196;2022-10-13T10:44:12;13.70;87.20
35920;DHT22;36160;53.370;-6.196;2022-10-13T10:46:49;13.70;81.70
35920;DHT22;36160;53.370;-6.196;2022-10-13T10:49:39;13.80;78.90
35920;DHT22;36160;53.370;-6.196;2022-10-13T10:52:09;13.80;80.00
35920;DHT22;36160;53.370;-6.196;2022-10-13T10:54:53;13.90;82.50
35920;DHT22;36160;53.370;-6.196;2022-10-13T11:00:12;13.90;74.60
35920;DHT22;36160;53.370;-6.196;2022-10-13T11:14:19;14.00;66.50
35920;DHT22;36160;53.370;-6.196;2022-10-13T11:19:39;14.10;74.20
35920;DHT22;36160;53.370;-6.196;2022-10-13T11:50:58;14.40;93.00
35920;DHT22;36160;53.370;-6.196;2022-10-13T11:53:38;14.50;96.20
35920;DHT22;36160;53.370;-6.196;2022-10-13T11:56:21;14.50;99.90
35920;DHT22;36160;53.370;-6.196;2022-10-13T11:58:47;14.60;92.80
35920;DHT22;36160;53.370;-6.196;2022-10-13T12:01:15;14.80;63.00
35920;DHT22;36160;53.370;-6.196;2022-10-13T12:03:43;15.00;41.60
35920;DHT22;36160;53.370;-6.196;2022-10-13T12:08:45;15.40;23.80
35920;DHT22;36160;53.370;-6.196;2022-10-13T12:11:26;15.40;19.90
35920;DHT22;36160;53.370;-6.196;2022-10-13T12:13:53;15.50;14.90
35920;DHT22;36160;53.370;-6.196;2022-10-13T12:16:20;15.60;15.90
35920;DHT22;36160;53.370;-6.196;2022-10-13T12:18:46;15.50;12.40
35920;DHT22;36160;53.370;-6.196;2022-10-13T12:23:39;15.70;11.50
35920;DHT22;36160;53.370;-6.196;2022-10-13T12:26:05;15.50;12.40
35920;DHT22;36160;53.370;-6.196;2022-10-13T12:31:27;15.50;1.70
35920;DHT22;36160;53.370;-6.196;2022-10-13T12:33:57;15.70;1.00
35920;DHT22;36160;53.370;-6.196;2022-10-13T12:36:28;15.70;1.00
35920;DHT22;36160;53.370;-6.196;2022-10-13T12:39:02;15.60;1.00
35920;DHT22;36160;53.370;-6.196;2022-10-13T12:41:35;15.60;1.00
35920;DHT22;36160;53.370;-6.196;2022-10-13T12:44:02;15.80;1.00
35920;DHT22;36160;53.370;-6.196;2022-10-13T12:46:58;16.00;1.00
35920;DHT22;36160;53.370;-6.196;2022-10-13T12:49:27;16.00;1.00
35920;DHT22;36160;53.370;-6.196;2022-10-13T12:52:18;16.10;1.00
35920;DHT22;36160;53.370;-6.196;2022-10-13T12:54:54;16.10;1.00
35920;DHT22;36160;53.370;-6.196;2022-10-13T12:57:34;16.10;1.00
35920;DHT22;36160;53.370;-6.196;2022-10-13T13:03:03;16.20;1.00
35920;DHT22;36160;53.370;-6.196;2022-10-13T13:05:36;16.10;1.00
35920;DHT22;36160;53.370;-6.196;2022-10-13T13:08:27;16.20;1.00
35920;DHT22;36160;53.370;-6.196;2022-10-13T13:11:01;16.10;1.00
35920;DHT22;36160;53.370;-6.196;2022-10-13T13:13:28;16.20;1.00
35920;DHT22;36160;53.370;-6.196;2022-10-13T13:16:18;16.10;1.00
35920;DHT22;36160;53.370;-6.196;2022-10-13T13:18:48;16.30;1.00
35920;DHT22;36160;53.370;-6.196;2022-10-13T13:21:16;16.30;1.00
35920;DHT22;36160;53.370;-6.196;2022-10-13T13:23:43;16.40;1.00
35920;DHT22;36160;53.370;-6.196;2022-10-13T13:26:16;16.40;1.00
35920;DHT22;36160;53.370;-6.196;2022-10-13T13:28:47;16.40;1.00
35920;DHT22;36160;53.370;-6.196;2022-10-13T13:31:15;16.50;1.00
35920;DHT22;36160;53.370;-6.196;2022-10-13T13:33:41;16.50;1.00
35920;DHT22;36160;53.370;-6.196;2022-10-13T13:36:17;16.60;1.00
35920;DHT22;36160;53.370;-6.196;2022-10-13T13:38:43;16.60;1.00
35920;DHT22;36160;53.370;-6.196;2022-10-13T13:41:10;16.70;1.00
35920;DHT22;36160;53.370;-6.196;2022-10-13T13:43:37;16.70;1.00
35920;DHT22;36160;53.370;-6.196;2022-10-13T13:46:04;16.70;1.00
35920;DHT22;36160;53.370;-6.196;2022-10-13T13:48:30;16.60;1.00
35920;DHT22;36160;53.370;-6.196;2022-10-13T13:50:56;16.70;1.00
35920;DHT22;36160;53.370;-6.196;2022-10-13T13:53:21;16.80;1.00
35920;DHT22;36160;53.370;-6.196;2022-10-13T13:55:47;16.80;1.00
35920;DHT22;36160;53.370;-6.196;2022-10-13T13:58:13;16.70;1.00
35920;DHT22;36160;53.370;-6.196;2022-10-13T14:00:39;16.70;1.00
35920;DHT22;36160;53.370;-6.196;2022-10-13T14:03:04;16.80;1.00
35920;DHT22;36160;53.370;-6.196;2022-10-13T14:05:30;16.60;1.00
35920;DHT22;36160;53.370;-6.196;2022-10-13T14:07:56;16.70;1.00
35920;DHT22;36160;53.370;-6.196;2022-10-13T14:10:23;16.70;1.00
35920;DHT22;36160;53.370;-6.196;2022-10-13T14:12:49;16.70;1.00
35920;DHT22;36160;53.370;-6.196;2022-10-13T14:15:15;16.70;1.00
35920;DHT22;36160;53.370;-6.196;2022-10-13T14:17:41;16.80;1.00
35920;DHT22;36160;53.370;-6.196;2022-10-13T14:20:07;16.80;1.00
35920;DHT22;36160;53.370;-6.196;2022-10-13T14:22:32;16.80;1.00
35920;DHT22;36160;53.370;-6.196;2022-10-13T14:24:58;16.80;1.00
35920;DHT22;36160;53.370;-6.196;2022-10-13T14:27:24;16.70;1.00
35920;DHT22;36160;53.370;-6.196;2022-10-13T14:29:49;16.60;1.00
35920;DHT22;36160;53.370;-6.196;2022-10-13T14:32:15;16.70;1.00
35920;DHT22;36160;53.370;-6.196;2022-10-13T14:34:41;16.80;1.00
35920;DHT22;36160;53.370;-6.196;2022-10-13T14:37:06;16.80;1.00
35920;DHT22;36160;53.370;-6.196;2022-10-13T14:39:32;16.90;1.00
35920;DHT22;36160;53.370;-6.196;2022-10-13T14:41:58;16.80;1.00
35920;DHT22;36160;53.370;-6.196;2022-10-13T14:44:24;16.80;1.00
35920;DHT22;36160;53.370;-6.196;2022-10-13T14:46:50;16.70;1.00
35920;DHT22;36160;53.370;-6.196;2022-10-13T14:49:15;16.60;1.00
35920;DHT22;36160;53.370;-6.196;2022-10-13T14:51:41;16.50;1.00
35920;DHT22;36160;53.370;-6.196;2022-10-13T14:54:07;16.40;1.00
35920;DHT22;36160;53.370;-6.196;2022-10-13T14:56:33;16.30;1.00
35920;DHT22;36160;53.370;-6.196;2022-10-13T14:59:00;16.20;1.00
35920;DHT22;36160;53.370;-6.196;2022-10-13T15:01:26;16.20;1.00
35920;DHT22;36160;53.370;-6.196;2022-10-13T15:03:52;16.10;4.50
35920;DHT22;36160;53.370;-6.196;2022-10-13T15:06:20;16.00;7.90
35920;DHT22;36160;53.370;-6.196;2022-10-13T15:08:47;15.90;11.80
35920;DHT22;36160;53.370;-6.196;2022-10-13T15:11:13;15.80;12.80
35920;DHT22;36160;53.370;-6.196;2022-10-13T15:13:39;15.80;16.60
35920;DHT22;36160;53.370;-6.196;2022-10-13T15:16:06;15.80;18.60
35920;DHT22;36160;53.370;-6.196;2022-10-13T15:18:32;15.70;20.00
35920;DHT22;36160;53.370;-6.196;2022-10-13T15:20:59;15.70;21.40
35920;DHT22;36160;53.370;-6.196;2022-10-13T15:23:25;15.80;23.80
35920;DHT22;36160;53.370;-6.196;2022-10-13T15:25:59;15.70;25.00
35920;DHT22;36160;53.370;-6.196;2022-10-13T15:28:27;15.80;27.20
35920;DHT22;36160;53.370;-6.196;2022-10-13T15:30:55;15.90;26.90
35920;DHT22;36160;53.370;-6.196;2022-10-13T15:33:21;15.80;28.20
35920;DHT22;36160;53.370;-6.196;2022-10-13T15:35:50;15.80;30.20
35920;DHT22;36160;53.370;-6.196;2022-10-13T15:38:18;15.80;31.90
35920;DHT22;36160;53.370;-6.196;2022-10-13T15:40:44;15.70;32.70
35920;DHT22;36160;53.370;-6.196;2022-10-13T15:43:10;15.70;35.70
35920;DHT22;36160;53.370;-6.196;2022-10-13T15:45:36;15.60;35.70
35920;DHT22;36160;53.370;-6.196;2022-10-13T15:48:03;15.70;37.10
35920;DHT22;36160;53.370;-6.196;2022-10-13T15:50:29;15.60;40.60
35920;DHT22;36160;53.370;-6.196;2022-10-13T15:52:55;15.60;43.30
35920;DHT22;36160;53.370;-6.196;2022-10-13T15:55:21;15.70;44.70
35920;DHT22;36160;53.370;-6.196;2022-10-13T15:57:47;15.60;46.60
35920;DHT22;36160;53.370;-6.196;2022-10-13T16:00:14;15.60;46.90
35920;DHT22;36160;53.370;-6.196;2022-10-13T16:02:40;15.60;48.60
35920;DHT22;36160;53.370;-6.196;2022-10-13T16:05:09;15.60;49.20
35920;DHT22;36160;53.370;-6.196;2022-10-13T16:07:35;15.60;51.80
35920;DHT22;36160;53.370;-6.196;2022-10-13T16:10:01;15.70;53.70
35920;DHT22;36160;53.370;-6.196;2022-10-13T16:12:28;15.60;55.00
35920;DHT22;36160;53.370;-6.196;2022-10-13T16:14:53;15.70;58.30
35920;DHT22;36160;53.370;-6.196;2022-10-13T16:17:19;15.60;55.90
35920;DHT22;36160;53.370;-6.196;2022-10-13T16:19:45;15.60;53.50
35920;DHT22;36160;53.370;-6.196;2022-10-13T16:22:11;15.60;55.30
35920;DHT22;36160;53.370;-6.196;2022-10-13T16:24:36;15.70;51.10
35920;DHT22;36160;53.370;-6.196;2022-10-13T16:27:02;15.60;51.60
35920;DHT22;36160;53.370;-6.196;2022-10-13T16:29:28;15.50;55.50
35920;DHT22;36160;53.370;-6.196;2022-10-13T16:31:54;15.40;58.60
35920;DHT22;36160;53.370;-6.196;2022-10-13T16:34:19;15.40;55.70
35920;DHT22;36160;53.370;-6.196;2022-10-13T16:36:45;15.40;56.40
35920;DHT22;36160;53.370;-6.196;2022-10-13T16:39:11;15.40;60.80
35920;DHT22;36160;53.370;-6.196;2022-10-13T16:41:37;15.30;60.70
35920;DHT22;36160;53.370;-6.196;2022-10-13T16:44:03;15.30;62.40
35920;DHT22;36160;53.370;-6.196;2022-10-13T16:46:29;15.30;65.70
35920;DHT22;36160;53.370;-6.196;2022-10-13T16:48:57;15.20;66.60
35920;DHT22;36160;53.370;-6.196;2022-10-13T16:51:26;15.20;67.20
35920;DHT22;36160;53.370;-6.196;2022-10-13T16:53:56;15.20;70.80
35920;DHT22;36160;53.370;-6.196;2022-10-13T16:56:23;15.10;70.80
35920;DHT22;36160;53.370;-6.196;2022-10-13T16:58:52;15.10;73.00
35920;DHT22;36160;53.370;-6.196;2022-10-13T17:01:19;15.10;76.80
35920;DHT22;36160;53.370;-6.196;2022-10-13T17:03:45;15.00;81.00
35920;DHT22;36160;53.370;-6.196;2022-10-13T17:06:12;15.00;82.10
35920;DHT22;36160;53.370;-6.196;2022-10-13T17:08:40;15.10;84.70
35920;DHT22;36160;53.370;-6.196;2022-10-13T17:11:06;15.00;85.40
35920;DHT22;36160;53.370;-6.196;2022-10-13T17:13:33;15.10;88.70
35920;DHT22;36160;53.370;-6.196;2022-10-13T17:15:59;15.00;89.90
35920;DHT22;36160;53.370;-6.196;2022-10-13T17:18:26;14.90;89.20
35920;DHT22;36160;53.370;-6.196;2022-10-13T17:20:54;14.90;90.00
35920;DHT22;36160;53.370;-6.196;2022-10-13T17:23:21;14.90;92.30
35920;DHT22;36160;53.370;-6.196;2022-10-13T17:25:47;14.90;93.10
35920;DHT22;36160;53.370;-6.196;2022-10-13T17:28:13;14.90;93.60
35920;DHT22;36160;53.370;-6.196;2022-10-13T17:30:39;15.00;94.00
35920;DHT22;36160;53.370;-6.196;2022-10-13T17:33:05;14.90;97.20
35920;DHT22;36160;53.370;-6.196;2022-10-13T17:35:31;14.90;98.40
35920;DHT22;36160;53.370;-6.196;2022-10-13T17:37:57;14.80;99.70
35920;DHT22;36160;53.370;-6.196;2022-10-13T17:40:24;14.80;99.90
35920;DHT22;36160;53.370;-6.196;2022-10-13T17:42:50;14.80;99.90